sim
Sign-in with your pilot id or email,
or register
Callsign
Passwort

Schedule Details

Flight Number: OEO7681
Departure: San Francisco International Airport (KSFO) at 22:10
Arrival: Munich Airport (EDDM) at 09:10

Weather Information
Getting current METAR information for KSFO 221356Z 23005KT 10SM FEW005 SCT009 16/13 A3002 RMK AO2 SLP164 T01560133
Getting current METAR information for EDDM 221420Z VRB03KT 9999 FEW040 24/14 Q1011 NOSIG

Schedule Frequency

Route Map